createdAt,value
2023-01-29T00:02:45.211Z,98621.41
2023-01-29T00:05:47.681Z,98624.56
2023-01-29T00:08:49.976Z,98625.09
2023-01-29T00:11:54.927Z,98623.31
2023-01-29T00:14:56.911Z,98620.69
2023-01-29T00:18:00.567Z,98632.34
2023-01-29T00:21:03.512Z,98629.28
2023-01-29T00:24:05.664Z,98621.06
2023-01-29T00:27:08.161Z,98621.75
2023-01-29T00:30:13.472Z,98622.50
2023-01-29T00:33:15.559Z,98621.50
2023-01-29T00:36:19.482Z,98629.69
2023-01-29T00:39:31.455Z,98627.72
2023-01-29T00:43:00.008Z,98620.50
2023-01-29T00:46:02.319Z,98618.84
2023-01-29T00:49:06.990Z,98621.09
2023-01-29T00:52:27.243Z,98618.59
2023-01-29T00:55:29.321Z,98622.03
2023-01-29T00:58:34.535Z,98611.06
2023-01-29T01:01:55.709Z,98624.91
2023-01-29T01:04:58.241Z,98627.06
2023-01-29T01:08:00.377Z,98630.50
2023-01-29T01:11:05.633Z,98640.00
2023-01-29T01:14:08.331Z,98634.25
2023-01-29T01:17:10.542Z,98645.63
2023-01-29T01:20:13.676Z,98645.78
2023-01-29T01:23:16.130Z,98636.94
2023-01-29T01:26:21.253Z,98644.34
2023-01-29T01:29:23.451Z,98634.84
2023-01-29T01:32:26.487Z,98636.50
2023-01-29T01:35:28.570Z,98629.09
2023-01-29T01:38:30.637Z,98631.56
2023-01-29T01:41:33.207Z,98625.25
2023-01-29T01:45:04.071Z,98630.81
2023-01-29T01:48:35.403Z,98617.19
2023-01-29T01:51:43.462Z,98632.22
2023-01-29T01:54:46.536Z,98628.78
2023-01-29T01:57:53.975Z,98631.78
2023-01-29T02:00:56.829Z,98634.09
2023-01-29T02:04:32.440Z,98629.31
2023-01-29T02:07:59.516Z,98635.97
2023-01-29T02:11:02.528Z,98642.00
2023-01-29T02:14:05.418Z,98634.03
2023-01-29T02:17:14.002Z,98640.91
2023-01-29T02:20:26.221Z,98641.78
2023-01-29T02:23:45.446Z,98640.88
2023-01-29T02:27:17.038Z,98647.53
2023-01-29T02:30:34.046Z,98652.84
2023-01-29T02:34:01.405Z,98652.16
2023-01-29T02:37:10.658Z,98644.03
2023-01-29T02:40:40.338Z,98649.25
2023-01-29T02:43:54.151Z,98648.72
2023-01-29T02:47:23.124Z,98649.53
2023-01-29T02:50:39.162Z,98651.84
2023-01-29T02:53:56.931Z,98658.69
2023-01-29T02:57:29.407Z,98654.38
2023-01-29T03:00:39.671Z,98661.44
2023-01-29T03:03:45.919Z,98668.28
2023-01-29T03:07:01.228Z,98640.25
2023-01-29T03:10:07.752Z,98663.75
2023-01-29T03:13:21.485Z,98641.66
2023-01-29T03:16:42.405Z,98663.59
2023-01-29T03:19:49.996Z,98663.47
2023-01-29T03:23:07.140Z,98656.34
2023-01-29T03:26:28.430Z,98661.06
2023-01-29T03:29:53.940Z,98663.75
2023-01-29T03:33:05.060Z,98663.50
2023-01-29T03:36:17.664Z,98671.94
2023-01-29T03:39:19.952Z,98677.13
2023-01-29T03:42:43.936Z,98666.09
2023-01-29T03:45:55.335Z,98665.94
2023-01-29T03:49:27.263Z,98655.25
2023-01-29T03:52:56.063Z,98643.81
2023-01-29T03:56:19.473Z,98649.47
2023-01-29T03:59:44.752Z,98651.31
2023-01-29T04:03:16.404Z,98638.78
2023-01-29T04:06:30.103Z,98629.94
2023-01-29T04:09:45.716Z,98633.63
2023-01-29T04:13:01.213Z,98625.59
2023-01-29T04:16:06.794Z,98626.25
2023-01-29T04:19:38.766Z,98597.16
2023-01-29T04:22:45.122Z,98624.84
2023-01-29T04:25:55.580Z,98618.09
2023-01-29T04:29:06.642Z,98622.34
2023-01-29T04:32:22.300Z,98607.19
2023-01-29T04:36:06.433Z,98607.19
2023-01-29T04:39:33.400Z,98617.38
2023-01-29T04:43:05.451Z,98616.50
2023-01-29T04:46:21.717Z,98616.25
2023-01-29T04:49:38.787Z,98627.56
2023-01-29T04:52:52.695Z,98629.38
2023-01-29T04:56:21.446Z,98643.41
2023-01-29T04:59:58.321Z,98648.22
2023-01-29T05:03:04.589Z,98652.47
2023-01-29T05:06:08.511Z,98647.56
2023-01-29T05:09:14.734Z,98648.97
2023-01-29T05:12:18.827Z,98653.72
2023-01-29T05:15:27.932Z,98649.34
2023-01-29T05:18:31.107Z,98648.25
2023-01-29T05:21:33.131Z,98650.34
2023-01-29T05:24:36.287Z,98651.63
2023-01-29T05:27:57.092Z,98646.66
2023-01-29T05:30:59.727Z,98642.69
2023-01-29T05:34:02.266Z,98634.59
2023-01-29T05:37:04.947Z,98636.75
2023-01-29T05:40:10.561Z,98622.47
2023-01-29T05:43:21.316Z,98634.72
2023-01-29T05:46:23.494Z,98637.63
2023-01-29T05:49:25.766Z,98633.50
2023-01-29T05:52:27.764Z,98639.13
2023-01-29T05:55:30.419Z,98633.63
2023-01-29T05:58:33.818Z,98639.25
2023-01-29T06:01:39.256Z,98641.72
2023-01-29T06:04:41.386Z,98639.50
2023-01-29T06:07:45.610Z,98630.47
2023-01-29T06:10:48.135Z,98633.72
2023-01-29T06:13:50.146Z,98627.13
2023-01-29T06:16:52.173Z,98633.47
2023-01-29T06:19:54.520Z,98613.66
2023-01-29T06:22:56.942Z,98614.31
2023-01-29T06:26:09.377Z,98606.25
2023-01-29T06:29:11.384Z,98619.03
2023-01-29T06:32:13.750Z,98619.44
2023-01-29T06:35:16.485Z,98627.69
2023-01-29T06:38:18.524Z,98585.13
2023-01-29T06:41:26.028Z,98621.50
2023-01-29T06:44:28.092Z,98623.13
2023-01-29T06:47:30.078Z,98631.13
2023-01-29T06:50:32.141Z,98629.22
2023-01-29T06:53:35.915Z,98636.25
2023-01-29T06:56:40.850Z,98634.44
2023-01-29T06:59:43.355Z,98626.63
2023-01-29T07:02:45.486Z,98633.63
2023-01-29T07:05:53.240Z,98634.44
2023-01-29T07:08:55.855Z,98618.13
2023-01-29T07:11:57.924Z,98634.19
2023-01-29T07:14:59.896Z,98623.59
2023-01-29T07:18:04.890Z,98618.38
2023-01-29T07:21:07.753Z,98610.28
2023-01-29T07:24:09.926Z,98620.03
2023-01-29T07:27:12.038Z,98631.69
2023-01-29T07:30:14.907Z,98628.94
2023-01-29T07:33:17.059Z,98635.25
2023-01-29T07:36:19.459Z,98637.72
2023-01-29T07:39:21.532Z,98634.97
2023-01-29T07:42:23.769Z,98636.75
2023-01-29T07:45:25.730Z,98628.09
2023-01-29T07:48:27.752Z,98636.47
2023-01-29T07:51:31.173Z,98632.94
2023-01-29T07:54:33.277Z,98631.25
2023-01-29T07:57:36.023Z,98627.78
2023-01-29T08:00:38.276Z,98639.72
2023-01-29T08:03:40.771Z,98641.50
2023-01-29T08:06:42.819Z,98633.59
2023-01-29T08:09:45.121Z,98638.88
2023-01-29T08:12:48.180Z,98640.94
2023-01-29T08:15:53.437Z,98625.19
2023-01-29T08:18:55.472Z,98642.47
2023-01-29T08:21:57.414Z,98639.44
2023-01-29T08:25:08.298Z,98647.03
2023-01-29T08:28:12.836Z,98654.47
2023-01-29T08:31:20.842Z,98642.88
2023-01-29T08:34:23.191Z,98562.00
2023-01-29T08:37:25.281Z,98645.44
2023-01-29T08:40:33.757Z,98633.44
2023-01-29T08:43:37.347Z,98640.25
2023-01-29T08:46:42.009Z,98661.56
2023-01-29T08:49:44.212Z,98681.00
2023-01-29T08:52:46.988Z,98673.03
2023-01-29T08:55:49.411Z,98676.00
2023-01-29T08:58:51.552Z,98683.09
2023-01-29T09:01:53.545Z,98677.94
2023-01-29T09:04:56.518Z,98686.97
2023-01-29T09:08:02.148Z,98688.34
2023-01-29T09:11:04.266Z,98690.22
2023-01-29T09:14:07.310Z,98685.50
2023-01-29T09:17:10.171Z,98684.88
2023-01-29T09:20:12.626Z,98694.19
2023-01-29T09:23:16.820Z,98686.31
2023-01-29T09:26:18.981Z,98675.78
2023-01-29T09:29:21.033Z,98681.03
2023-01-29T09:32:49.729Z,98676.53
2023-01-29T09:35:48.270Z,98673.25
2023-01-29T09:38:50.324Z,98662.97
2023-01-29T09:42:25.912Z,98687.00
2023-01-29T09:45:32.064Z,98682.41
2023-01-29T09:48:36.610Z,98687.34
2023-01-29T09:51:46.932Z,98681.59
2023-01-29T09:55:20.546Z,98682.84
2023-01-29T09:58:41.125Z,98695.13
2023-01-29T10:02:22.652Z,98704.88
2023-01-29T10:05:36.754Z,98702.84
2023-01-29T10:08:52.566Z,98700.47
2023-01-29T10:12:12.201Z,98676.91
2023-01-29T10:15:20.832Z,98674.13
2023-01-29T10:18:55.739Z,98670.78
2023-01-29T10:22:29.680Z,98688.88
2023-01-29T10:25:36.246Z,98685.69
2023-01-29T10:28:50.473Z,98681.19
2023-01-29T10:31:59.651Z,98684.03
2023-01-29T10:35:28.329Z,98667.16
2023-01-29T10:38:48.746Z,98655.69
2023-01-29T10:42:21.090Z,98643.91
2023-01-29T10:45:35.415Z,98651.47
2023-01-29T10:48:44.710Z,98648.22
2023-01-29T10:52:02.214Z,98642.06
2023-01-29T10:55:28.468Z,98644.66
2023-01-29T10:58:34.379Z,98648.41
2023-01-29T11:01:36.493Z,98602.91
2023-01-29T11:04:42.310Z,98634.16
2023-01-29T11:07:45.157Z,98627.31
2023-01-29T11:10:58.719Z,98633.28
2023-01-29T11:14:07.254Z,98629.16
2023-01-29T11:17:23.415Z,98623.44
2023-01-29T11:20:31.204Z,98616.41
2023-01-29T11:23:34.278Z,98615.53
2023-01-29T11:26:41.629Z,98588.47
2023-01-29T11:29:46.425Z,98595.13
2023-01-29T11:33:14.352Z,98589.25
2023-01-29T11:36:40.134Z,98578.78
2023-01-29T11:39:47.418Z,98573.84
2023-01-29T11:42:50.787Z,98564.16
2023-01-29T11:45:57.178Z,98553.78
2023-01-29T11:49:09.917Z,98543.31
2023-01-29T11:52:25.114Z,98542.56
2023-01-29T11:55:41.005Z,98539.59
2023-01-29T11:58:56.124Z,98514.66
2023-01-29T12:02:16.492Z,98517.13
2023-01-29T12:05:22.561Z,98522.25
2023-01-29T12:08:28.183Z,98473.03
2023-01-29T12:11:33.733Z,98495.88
2023-01-29T12:14:36.666Z,98479.13
2023-01-29T12:17:51.936Z,98490.94
2023-01-29T12:21:03.929Z,98484.38
2023-01-29T12:24:24.971Z,98480.75
2023-01-29T12:27:49.746Z,98469.41
2023-01-29T12:31:19.211Z,98470.25
2023-01-29T12:34:48.392Z,98456.72
2023-01-29T12:38:04.829Z,98450.78
2023-01-29T12:41:37.537Z,98454.22
2023-01-29T12:44:59.880Z,98443.72
2023-01-29T12:48:08.856Z,98442.72
2023-01-29T12:51:24.527Z,98438.41
2023-01-29T12:54:42.484Z,98440.75
2023-01-29T12:57:54.345Z,98445.38
2023-01-29T13:01:03.541Z,98430.44
2023-01-29T13:04:33.123Z,98441.28
2023-01-29T13:07:42.527Z,98426.69
2023-01-29T13:10:50.852Z,98423.06
2023-01-29T13:14:19.015Z,98419.78
2023-01-29T13:17:43.040Z,98418.00
2023-01-29T13:20:48.926Z,98406.00
2023-01-29T13:24:03.779Z,98416.50
2023-01-29T13:27:06.820Z,98415.84
2023-01-29T13:30:26.400Z,98418.81
2023-01-29T13:33:29.557Z,98411.72
2023-01-29T13:36:32.947Z,98416.34
2023-01-29T13:39:45.730Z,98412.88
2023-01-29T13:42:50.447Z,98412.41
2023-01-29T13:45:54.372Z,98408.94
2023-01-29T13:48:58.888Z,98399.91
2023-01-29T13:52:18.088Z,98401.38
2023-01-29T13:55:26.556Z,98396.28
2023-01-29T13:58:32.377Z,98407.16
2023-01-29T14:01:48.301Z,98391.06
2023-01-29T14:04:52.406Z,98402.72
2023-01-29T14:07:57.688Z,98394.38
2023-01-29T14:11:18.417Z,98402.72
2023-01-29T14:14:48.312Z,98405.34
2023-01-29T14:18:09.157Z,98402.72
2023-01-29T14:21:17.331Z,98404.00
2023-01-29T14:24:25.159Z,98396.16
2023-01-29T14:27:28.068Z,98403.84
2023-01-29T14:30:34.867Z,98396.25
2023-01-29T14:33:43.425Z,98412.66
2023-01-29T14:36:56.072Z,98402.78
2023-01-29T14:40:09.077Z,98403.09
2023-01-29T14:43:24.403Z,98394.63
2023-01-29T14:46:48.105Z,98407.38
2023-01-29T14:50:02.829Z,98406.88
2023-01-29T14:53:20.581Z,98408.31
2023-01-29T14:56:35.821Z,98376.97
2023-01-29T15:00:01.393Z,98398.31
2023-01-29T15:03:12.436Z,98415.97
2023-01-29T15:06:29.671Z,98407.13
2023-01-29T15:09:37.331Z,98399.66
2023-01-29T15:12:49.926Z,98401.38
2023-01-29T15:16:27.955Z,98402.28
2023-01-29T15:19:37.153Z,98408.47
2023-01-29T15:22:46.937Z,98414.63
2023-01-29T15:25:53.667Z,98422.94
2023-01-29T15:29:04.683Z,98432.34
2023-01-29T15:32:08.698Z,98424.16
2023-01-29T15:35:20.596Z,98424.97
2023-01-29T15:38:27.213Z,98430.06
2023-01-29T15:41:30.425Z,98421.84
2023-01-29T15:44:38.313Z,98423.50
2023-01-29T15:47:44.080Z,98430.88
2023-01-29T15:50:47.224Z,98434.06
2023-01-29T15:54:00.173Z,98433.25
2023-01-29T15:57:04.722Z,98425.09
2023-01-29T16:00:20.267Z,98434.69
2023-01-29T16:03:25.552Z,98442.75
2023-01-29T16:06:31.959Z,98398.25
2023-01-29T16:09:36.231Z,98441.91
2023-01-29T16:12:58.108Z,98445.69
2023-01-29T16:16:22.424Z,98429.88
2023-01-29T16:19:30.147Z,98453.69
2023-01-29T16:22:38.820Z,98452.72
2023-01-29T16:25:43.925Z,98450.94
2023-01-29T16:28:48.983Z,98452.03
2023-01-29T16:32:00.876Z,98450.25
2023-01-29T16:35:05.805Z,98450.41
2023-01-29T16:38:30.523Z,98445.16
2023-01-29T16:41:39.591Z,98453.47
2023-01-29T16:44:53.115Z,98461.03
2023-01-29T16:48:23.227Z,98452.88
2023-01-29T16:51:32.506Z,98452.34
2023-01-29T16:54:44.081Z,98460.56
2023-01-29T16:57:54.537Z,98459.59
2023-01-29T17:01:04.560Z,98460.44
2023-01-29T17:04:20.131Z,98462.59
2023-01-29T17:07:24.910Z,98461.09
2023-01-29T17:10:29.983Z,98461.53
2023-01-29T17:13:44.491Z,98464.75
2023-01-29T17:16:58.405Z,98447.94
2023-01-29T17:20:14.796Z,98451.53
2023-01-29T17:23:18.074Z,98449.72
2023-01-29T17:26:26.539Z,98433.53
2023-01-29T17:29:32.596Z,98441.16
2023-01-29T17:32:44.591Z,98441.31
2023-01-29T17:35:50.696Z,98419.09
2023-01-29T17:38:54.114Z,98423.06
2023-01-29T17:41:59.807Z,98425.09
2023-01-29T17:45:05.067Z,98422.03
2023-01-29T17:48:32.937Z,98421.38
2023-01-29T17:51:36.544Z,98419.56
2023-01-29T17:54:40.519Z,98390.34
2023-01-29T17:57:44.047Z,98412.69
2023-01-29T18:00:50.035Z,98417.31
2023-01-29T18:03:52.533Z,98395.75
2023-01-29T18:06:57.983Z,98388.41
2023-01-29T18:10:01.149Z,98383.78
2023-01-29T18:13:04.630Z,98381.59
2023-01-29T18:16:08.301Z,98371.25
2023-01-29T18:19:23.376Z,98379.97
2023-01-29T18:22:26.386Z,98373.63
2023-01-29T18:25:32.896Z,98362.53
2023-01-29T18:28:36.084Z,98370.34
2023-01-29T18:31:39.089Z,98367.56
2023-01-29T18:34:42.333Z,98366.22
2023-01-29T18:37:45.869Z,98368.19
2023-01-29T18:40:51.625Z,98359.19
2023-01-29T18:43:54.892Z,98352.94
2023-01-29T18:46:57.952Z,98367.66
2023-01-29T18:50:01.177Z,98360.41
2023-01-29T18:53:05.079Z,98363.03
2023-01-29T18:56:08.837Z,98363.03
2023-01-29T18:59:12.017Z,98359.06
2023-01-29T19:02:19.568Z,98341.16
2023-01-29T19:05:24.257Z,98360.56
2023-01-29T19:08:27.657Z,98352.94
2023-01-29T19:11:31.250Z,98362.81
2023-01-29T19:14:36.918Z,98358.25
2023-01-29T19:17:40.116Z,98356.38
2023-01-29T19:20:44.144Z,98349.38
2023-01-29T19:23:48.969Z,98343.63
2023-01-29T19:26:52.689Z,98340.84
2023-01-29T19:29:56.994Z,98338.06
2023-01-29T19:33:04.058Z,98319.69
2023-01-29T19:36:09.770Z,98317.78
2023-01-29T19:39:13.060Z,98305.69
2023-01-29T19:42:17.772Z,98299.94
2023-01-29T19:45:48.881Z,98291.78
2023-01-29T19:48:51.906Z,98282.00
2023-01-29T19:51:59.503Z,98272.00
2023-01-29T19:55:06.086Z,98273.19
2023-01-29T19:58:10.453Z,98267.13
2023-01-29T20:01:21.805Z,98261.25
2023-01-29T20:04:28.905Z,98258.69
2023-01-29T20:07:32.361Z,98234.41
2023-01-29T20:10:35.198Z,98271.81
2023-01-29T20:13:41.340Z,98267.25
2023-01-29T20:16:44.785Z,98260.72
2023-01-29T20:19:48.763Z,98244.88
2023-01-29T20:22:53.978Z,98283.28
2023-01-29T20:26:05.683Z,98284.06
2023-01-29T20:29:11.956Z,98277.28
2023-01-29T20:32:20.521Z,98288.22
2023-01-29T20:35:23.227Z,98291.22
2023-01-29T20:38:33.876Z,98300.50
2023-01-29T20:41:42.453Z,98297.06
2023-01-29T20:44:45.967Z,98294.00
2023-01-29T20:47:51.542Z,98260.09
2023-01-29T20:50:58.448Z,98299.38
2023-01-29T20:54:02.038Z,98286.88
2023-01-29T20:57:05.695Z,98283.72
2023-01-29T21:00:09.761Z,98281.03
2023-01-29T21:03:12.938Z,98288.13
2023-01-29T21:06:17.432Z,98272.72
2023-01-29T21:09:20.995Z,98286.34
2023-01-29T21:12:24.427Z,98285.41
2023-01-29T21:15:28.592Z,98286.16
2023-01-29T21:18:33.222Z,98293.25
2023-01-29T21:21:35.832Z,98292.06
2023-01-29T21:24:42.235Z,98280.63
2023-01-29T21:27:45.151Z,98281.81
2023-01-29T21:30:48.593Z,98289.13
2023-01-29T21:33:51.182Z,98248.94
2023-01-29T21:36:55.784Z,98279.53
2023-01-29T21:40:00.005Z,98279.56
2023-01-29T21:43:13.033Z,98267.09
2023-01-29T21:46:16.430Z,98274.41
2023-01-29T21:49:19.148Z,98277.50
2023-01-29T21:52:24.249Z,98277.03
2023-01-29T21:55:30.025Z,98276.03
2023-01-29T21:58:33.106Z,98272.97
2023-01-29T22:01:37.225Z,98232.06
2023-01-29T22:04:41.218Z,98270.56
2023-01-29T22:07:45.153Z,98267.06
2023-01-29T22:10:50.932Z,98261.19
2023-01-29T22:13:53.574Z,98258.03
2023-01-29T22:16:56.176Z,98261.06
2023-01-29T22:19:58.745Z,98249.25
2023-01-29T22:23:01.472Z,98250.00
2023-01-29T22:26:09.503Z,98247.41
2023-01-29T22:29:13.161Z,98180.25
2023-01-29T22:32:15.402Z,98246.91
2023-01-29T22:35:17.873Z,98235.03
2023-01-29T22:38:19.818Z,98220.41
2023-01-29T22:41:22.090Z,98214.25
2023-01-29T22:44:24.141Z,98209.72
2023-01-29T22:47:26.587Z,98204.63
2023-01-29T22:50:28.839Z,98202.69
2023-01-29T22:53:30.761Z,98199.78
2023-01-29T22:56:32.999Z,98197.84
2023-01-29T22:59:35.078Z,98192.31
2023-01-29T23:02:37.534Z,98166.31
2023-01-29T23:05:39.569Z,98169.66
2023-01-29T23:08:41.688Z,98177.56
2023-01-29T23:11:44.049Z,98174.94
2023-01-29T23:14:46.471Z,98166.28
2023-01-29T23:17:48.713Z,98156.59
2023-01-29T23:20:56.861Z,98145.53
2023-01-29T23:24:00.284Z,98168.34
2023-01-29T23:27:17.277Z,98160.88
2023-01-29T23:30:20.317Z,98168.88
2023-01-29T23:33:22.705Z,98165.28
2023-01-29T23:36:25.258Z,98177.41
2023-01-29T23:39:27.219Z,98175.72
2023-01-29T23:42:29.214Z,98173.13
2023-01-29T23:45:31.353Z,98169.69
2023-01-29T23:48:33.622Z,98169.06
2023-01-29T23:51:36.550Z,98163.69
2023-01-29T23:54:38.998Z,98175.44
2023-01-29T23:57:41.137Z,98164.78
